Time;durP1;ratioP1;P1;durP2;ratioP2;P2;SDS_P1;SDS_P2;PMS_P1;PMS_P2;Temp;Humidity;BMP_temperature;BMP_pressure;BME280_temperature;BME280_humidity;BME280_pressure;Samples;Min_cycle;Max_cycle;Signal;HPM_P1;HPM_P2
2022/07/22 00:01:47;;;;;;;11.60;9.23;;;;;;;;;;5099631;28;20451;-90
2022/07/22 00:04:13;;;;;;;11.97;8.33;;;18.60;99.90;;;;;;5102661;28;20195;-88
2022/07/22 00:06:38;;;;;;;14.07;10.00;;;18.50;99.90;;;;;;5082136;28;20476;-89
2022/07/22 00:09:04;;;;;;;11.73;9.10;;;18.50;99.90;;;;;;5079804;28;20211;-88
2022/07/22 00:11:30;;;;;;;11.27;9.50;;;18.40;99.90;;;;;;5083169;28;20183;-88
2022/07/22 00:13:56;;;;;;;11.23;9.10;;;;;;;;;;5074690;28;20188;-88
2022/07/22 00:16:21;;;;;;;11.33;8.97;;;18.40;99.90;;;;;;5081270;28;20196;-89
2022/07/22 00:18:47;;;;;;;11.47;9.20;;;18.40;99.90;;;;;;5070123;28;20446;-88
2022/07/22 00:21:13;;;;;;;12.17;9.33;;;;;;;;;;5065539;28;20752;-88
2022/07/22 00:23:38;;;;;;;11.87;8.73;;;18.40;99.90;;;;;;5077749;28;20207;-87
2022/07/22 00:26:04;;;;;;;13.37;10.37;;;;;;;;;;5074161;28;20434;-88
2022/07/22 00:28:30;;;;;;;11.07;9.97;;;18.30;99.90;;;;;;5083350;28;20262;-88
2022/07/22 00:30:56;;;;;;;13.70;9.80;;;;;;;;;;5078278;28;20704;-88
2022/07/22 00:33:22;;;;;;;10.83;9.77;;;18.30;99.90;;;;;;5082724;28;20220;-87
2022/07/22 00:35:47;;;;;;;12.00;9.47;;;18.20;99.90;;;;;;5090479;28;20442;-89
2022/07/22 00:38:13;;;;;;;10.57;9.47;;;18.30;99.90;;;;;;5104385;28;20213;-87
2022/07/22 00:40:39;;;;;;;9.80;8.80;;;18.40;99.90;;;;;;5087790;28;20191;-89
2022/07/22 00:43:04;;;;;;;11.60;9.57;;;18.20;99.90;;;;;;5083110;28;20368;-88
2022/07/22 00:45:30;;;;;;;18.37;10.40;;;18.20;99.90;;;;;;5076104;28;20309;-89
2022/07/22 00:47:56;;;;;;;10.73;9.50;;;18.40;99.90;;;;;;5072894;28;20180;-88
2022/07/22 00:50:23;;;;;;;12.43;10.73;;;18.30;99.90;;;;;;5079457;28;20434;-88
2022/07/22 00:52:49;;;;;;;13.33;10.33;;;18.50;99.90;;;;;;5074813;28;20187;-87
2022/07/22 00:55:15;;;;;;;11.60;9.90;;;18.40;99.90;;;;;;5075938;28;20446;-88
2022/07/22 00:57:42;;;;;;;13.67;9.10;;;18.20;99.90;;;;;;5076521;28;20443;-87
2022/07/22 01:00:12;;;;;;;12.57;10.60;;;18.10;99.90;;;;;;5068096;28;20371;-88
2022/07/22 01:02:38;;;;;;;12.87;10.03;;;18.00;99.90;;;;;;5071961;28;20461;-88
2022/07/22 01:05:05;;;;;;;12.80;10.70;;;18.00;99.90;;;;;;5070512;28;21015;-88
2022/07/22 01:07:31;;;;;;;14.13;9.60;;;17.90;99.90;;;;;;5074493;28;20206;-89
2022/07/22 01:09:56;;;;;;;16.20;10.50;;;17.90;99.90;;;;;;5078879;28;20499;-89
2022/07/22 01:12:22;;;;;;;12.00;10.43;;;17.90;99.90;;;;;;5074583;28;20199;-87
2022/07/22 01:14:47;;;;;;;13.23;9.50;;;17.90;99.90;;;;;;5080179;28;20674;-88
2022/07/22 01:17:13;;;;;;;15.93;10.53;;;17.90;99.90;;;;;;5076192;28;20180;-88
2022/07/22 01:19:38;;;;;;;13.63;11.77;;;18.00;99.90;;;;;;5066535;28;20725;-89
2022/07/22 01:22:05;;;;;;;15.27;11.00;;;18.00;99.90;;;;;;5068904;28;20192;-87
2022/07/22 01:24:31;;;;;;;12.83;9.30;;;18.00;99.90;;;;;;5088912;28;20207;-87
2022/07/22 01:26:56;;;;;;;12.40;10.37;;;18.00;99.90;;;;;;5068378;28;20526;-87
2022/07/22 01:29:22;;;;;;;13.50;10.13;;;18.00;99.90;;;;;;5070311;28;20227;-87
2022/07/22 01:31:48;;;;;;;11.07;9.87;;;18.00;99.90;;;;;;5068290;28;20177;-87
2022/07/22 01:34:13;;;;;;;12.13;9.30;;;17.90;99.90;;;;;;5070612;28;20176;-88
2022/07/22 01:36:39;;;;;;;18.73;11.93;;;17.90;99.90;;;;;;5069086;28;20202;-90
2022/07/22 01:39:04;;;;;;;16.77;11.67;;;17.90;99.90;;;;;;5073694;28;20828;-87
2022/07/22 01:41:30;;;;;;;16.77;11.60;;;17.90;99.90;;;;;;5088614;28;20172;-88
2022/07/22 01:43:56;;;;;;;14.90;11.10;;;17.90;99.90;;;;;;5075969;28;20208;-89
2022/07/22 01:46:23;;;;;;;12.33;10.63;;;18.00;99.90;;;;;;5076724;28;20381;-88
2022/07/22 01:48:49;;;;;;;13.70;10.63;;;17.80;99.90;;;;;;5079017;28;20736;-89
2022/07/22 01:51:15;;;;;;;13.20;11.10;;;17.70;99.90;;;;;;5073138;28;20449;-87
2022/07/22 01:53:41;;;;;;;12.50;10.77;;;;;;;;;;5077623;28;20435;-88
2022/07/22 01:56:06;;;;;;;10.90;9.50;;;17.60;99.90;;;;;;5088420;28;20181;-89
2022/07/22 01:58:32;;;;;;;12.27;10.27;;;17.60;99.90;;;;;;5087815;28;20473;-87
2022/07/22 02:00:58;;;;;;;14.93;10.83;;;17.60;99.90;;;;;;5068133;28;20473;-89
2022/07/22 02:03:24;;;;;;;13.23;10.73;;;17.50;99.90;;;;;;5087585;28;20222;-89
2022/07/22 02:05:49;;;;;;;15.07;9.60;;;17.50;99.90;;;;;;5080418;28;20537;-88
2022/07/22 02:08:15;;;;;;;11.93;10.67;;;17.50;99.90;;;;;;5072271;28;21091;-88
2022/07/22 02:10:40;;;;;;;16.77;10.63;;;17.40;99.90;;;;;;5076086;28;20226;-88
2022/07/22 02:13:06;;;;;;;13.73;10.40;;;17.30;99.90;;;;;;5080508;28;20189;-89
2022/07/22 02:15:32;;;;;;;13.90;10.53;;;17.30;99.90;;;;;;5063852;28;20215;-89
2022/07/22 02:17:57;;;;;;;14.50;11.50;;;17.30;99.90;;;;;;5075922;28;20188;-87
2022/07/22 02:20:23;;;;;;;13.67;11.23;;;17.30;99.90;;;;;;5075943;28;20188;-87
2022/07/22 02:22:50;;;;;;;16.33;12.50;;;;;;;;;;5072805;28;20264;-86
2022/07/22 02:25:15;;;;;;;14.87;11.07;;;17.30;99.90;;;;;;5067437;28;20825;-89
2022/07/22 02:27:42;;;;;;;14.93;10.70;;;17.30;99.90;;;;;;5075506;28;20450;-87
2022/07/22 02:30:08;;;;;;;14.43;10.87;;;17.20;99.90;;;;;;5068813;28;20897;-88
2022/07/22 02:32:34;;;;;;;18.50;11.97;;;17.20;99.90;;;;;;5072218;28;20442;-90
2022/07/22 02:35:00;;;;;;;16.10;10.30;;;;;;;;;;5066380;28;20445;-88
2022/07/22 02:37:25;;;;;;;15.47;11.03;;;17.20;99.90;;;;;;5065295;28;20192;-89
2022/07/22 02:39:51;;;;;;;12.50;10.20;;;17.10;99.90;;;;;;5075547;28;20472;-87
2022/07/22 02:42:17;;;;;;;12.63;10.97;;;17.10;99.90;;;;;;5073497;28;20262;-88
2022/07/22 02:44:42;;;;;;;13.90;11.30;;;;;;;;;;5080040;28;20179;-88
2022/07/22 02:47:08;;;;;;;15.10;11.37;;;17.00;99.90;;;;;;5072496;28;20179;-90
2022/07/22 02:49:33;;;;;;;17.63;12.20;;;16.90;99.90;;;;;;5071866;28;20446;-87
2022/07/22 02:51:59;;;;;;;15.20;10.30;;;16.90;99.90;;;;;;5069018;28;20188;-88
2022/07/22 02:54:24;;;;;;;17.50;11.70;;;17.00;99.90;;;;;;5079703;28;20180;-88
2022/07/22 02:56:50;;;;;;;12.30;10.70;;;17.00;99.90;;;;;;5070565;28;20232;-88
2022/07/22 02:59:15;;;;;;;17.67;12.50;;;16.90;99.90;;;;;;5065179;28;20210;-88
2022/07/22 03:01:41;;;;;;;17.70;11.93;;;16.90;99.90;;;;;;5074799;28;20187;-90
2022/07/22 03:04:07;;;;;;;19.23;12.27;;;;;;;;;;5072479;28;20200;-88
2022/07/22 03:06:32;;;;;;;14.10;11.37;;;16.80;99.90;;;;;;5080920;28;20183;-88
2022/07/22 03:08:59;;;;;;;14.23;11.43;;;;;;;;;;5072690;28;20463;-90
2022/07/22 03:11:24;;;;;;;14.13;11.30;;;16.60;99.90;;;;;;5075402;28;21150;-89
2022/07/22 03:13:49;;;;;;;14.30;11.80;;;16.60;99.90;;;;;;5080322;28;20437;-88
2022/07/22 03:16:15;;;;;;;17.33;13.63;;;16.60;99.90;;;;;;5082364;28;20215;-88
2022/07/22 03:18:40;;;;;;;20.07;13.20;;;16.50;99.90;;;;;;5078110;28;21064;-87
2022/07/22 03:21:06;;;;;;;17.00;13.23;;;16.50;99.90;;;;;;5086099;28;20206;-87
2022/07/22 03:23:32;;;;;;;15.07;12.33;;;16.50;99.90;;;;;;5097286;28;20212;-88
2022/07/22 03:25:57;;;;;;;17.80;11.90;;;16.40;99.90;;;;;;5086558;28;20180;-88
2022/07/22 03:28:23;;;;;;;13.17;11.67;;;16.30;99.90;;;;;;5092979;28;20184;-90
2022/07/22 03:30:49;;;;;;;16.07;11.43;;;16.60;99.90;;;;;;5095108;28;21336;-87
2022/07/22 03:33:14;;;;;;;15.90;12.43;;;16.30;99.90;;;;;;5107873;28;20676;-87
2022/07/22 03:35:40;;;;;;;13.63;11.20;;;16.30;99.90;;;;;;5082014;28;20192;-89
2022/07/22 03:38:06;;;;;;;20.70;12.77;;;16.30;99.90;;;;;;5073634;28;20437;-88
2022/07/22 03:40:32;;;;;;;15.40;11.77;;;16.30;99.90;;;;;;5078523;28;20963;-88
2022/07/22 03:42:58;;;;;;;15.00;11.83;;;16.30;99.90;;;;;;5094436;28;20326;-88
2022/07/22 03:45:24;;;;;;;18.30;13.00;;;16.30;99.90;;;;;;5077367;28;20203;-87
2022/07/22 03:47:49;;;;;;;15.27;11.97;;;16.40;99.90;;;;;;5079721;28;20866;-86
2022/07/22 03:50:15;;;;;;;15.23;10.83;;;16.40;99.90;;;;;;5072061;28;20196;-87
2022/07/22 03:52:40;;;;;;;15.90;12.33;;;16.50;99.90;;;;;;5077475;28;20179;-88
2022/07/22 03:55:06;;;;;;;16.10;12.90;;;16.50;99.90;;;;;;5074835;28;20176;-89
2022/07/22 03:57:32;;;;;;;21.03;13.43;;;16.50;99.90;;;;;;5065746;28;20239;-89
2022/07/22 03:59:57;;;;;;;13.37;12.00;;;16.60;99.90;;;;;;5068434;28;20570;-88
2022/07/22 04:02:23;;;;;;;13.50;11.80;;;16.60;99.90;;;;;;5075360;28;20260;-88
2022/07/22 04:04:48;;;;;;;15.33;11.30;;;16.60;99.90;;;;;;5085653;28;20183;-88
2022/07/22 04:07:14;;;;;;;15.13;11.60;;;16.70;99.90;;;;;;5068382;28;20194;-86
2022/07/22 04:09:40;;;;;;;16.40;11.87;;;;;;;;;;5072679;28;20207;-89
2022/07/22 04:12:06;;;;;;;15.63;12.97;;;;;;;;;;5077375;28;20687;-87
2022/07/22 04:14:31;;;;;;;14.83;12.10;;;17.00;99.90;;;;;;5074464;28;20445;-89
2022/07/22 04:16:57;;;;;;;18.70;11.17;;;17.10;99.90;;;;;;5070998;28;20450;-88
2022/07/22 04:19:22;;;;;;;16.20;11.50;;;17.10;99.90;;;;;;5068527;28;20215;-88
2022/07/22 04:21:48;;;;;;;15.40;12.93;;;17.10;99.90;;;;;;5069003;28;20302;-88
2022/07/22 04:24:13;;;;;;;16.20;12.40;;;17.10;99.90;;;;;;5073357;28;20301;-89
2022/07/22 04:26:39;;;;;;;12.70;10.87;;;17.20;99.90;;;;;;5072995;28;20188;-88
2022/07/22 04:29:05;;;;;;;13.77;11.97;;;17.50;99.90;;;;;;5065205;28;20222;-87
2022/07/22 04:31:30;;;;;;;14.63;11.80;;;17.60;99.90;;;;;;5076509;28;20302;-86
2022/07/22 04:33:57;;;;;;;15.40;11.90;;;18.00;99.90;;;;;;5076135;28;20529;-87
2022/07/22 04:36:23;;;;;;;11.33;10.13;;;;;;;;;;5070478;28;20632;-90
2022/07/22 04:38:49;;;;;;;14.67;9.87;;;20.60;99.90;;;;;;5067598;28;20510;-87
2022/07/22 04:41:15;;;;;;;10.40;9.30;;;21.90;99.90;;;;;;5073534;28;20494;-87
2022/07/22 04:43:42;;;;;;;10.27;9.27;;;;;;;;;;5073479;28;20492;-88
2022/07/22 04:46:08;;;;;;;11.97;10.57;;;;;;;;;;5071672;28;20437;-89
2022/07/22 04:48:33;;;;;;;12.03;9.63;;;24.60;99.90;;;;;;5071908;28;20450;-87
2022/07/22 04:51:00;;;;;;;9.80;8.30;;;27.30;99.90;;;;;;5066195;28;20540;-89
2022/07/22 04:53:26;;;;;;;10.97;9.80;;;27.30;99.90;;;;;;5060453;28;20188;-89
2022/07/22 04:55:54;;;;;;;10.20;8.70;;;28.60;99.90;;;;;;5070293;28;20447;-89
2022/07/22 04:58:20;;;;;;;12.10;10.67;;;29.10;99.90;;;;;;5059459;28;23556;-88
2022/07/22 05:00:47;;;;;;;11.40;10.40;;;32.00;99.90;;;;;;5079972;28;20443;-90
2022/07/22 05:03:14;;;;;;;10.93;9.80;;;;;;;;;;5068322;28;20482;-89
2022/07/22 05:05:39;;;;;;;10.70;9.70;;;;;;;;;;5065903;28;20482;-89
2022/07/22 05:08:05;;;;;;;13.90;9.67;;;;;;;;;;5085158;28;20461;-88
2022/07/22 05:10:32;;;;;;;10.93;9.80;;;;;;;;;;5065849;28;20428;-89
2022/07/22 05:12:58;;;;;;;12.13;10.93;;;34.70;88.70;;;;;;5070567;28;21503;-89
2022/07/22 05:15:24;;;;;;;12.67;10.67;;;35.10;85.00;;;;;;5073418;28;20434;-89
2022/07/22 05:17:50;;;;;;;12.90;9.90;;;;;;;;;;5068623;28;20449;-89
2022/07/22 05:20:16;;;;;;;11.80;10.60;;;;;;;;;;5066385;28;20458;-89
2022/07/22 05:22:42;;;;;;;11.50;10.40;;;;;;;;;;5071656;28;20466;-89
2022/07/22 05:25:09;;;;;;;11.03;9.97;;;;;;;;;;5062661;28;20447;-89
2022/07/22 05:27:35;;;;;;;11.70;10.40;;;;;;;;;;5071541;28;20918;-88
2022/07/22 05:30:01;;;;;;;12.73;11.33;;;;;;;;;;5072575;28;20466;-89
2022/07/22 05:32:27;;;;;;;14.37;12.57;;;;;;;;;;5065566;28;20441;-90
2022/07/22 05:34:52;;;;;;;12.40;11.30;;;;;;;;;;5064761;28;20441;-87
2022/07/22 05:37:19;;;;;;;13.83;12.53;;;;;;;;;;5067004;28;20438;-89
2022/07/22 05:39:45;;;;;;;14.07;12.67;;;;;;;;;;5062446;28;20463;-89
2022/07/22 05:42:10;;;;;;;12.77;11.47;;;;;;;;;;5060796;28;20469;-90
2022/07/22 05:44:36;;;;;;;13.30;12.10;;;;;;;;;;5058839;28;20460;-89
2022/07/22 05:47:03;;;;;;;13.60;12.40;;;40.00;57.40;;;;;;5066719;28;20500;-88
2022/07/22 05:49:29;;;;;;;15.83;13.97;;;;;;;;;;5066698;28;20456;-89
2022/07/22 05:52:00;;;;;;;14.63;13.33;;;;;;;;;;5077108;28;20440;-90
2022/07/22 05:54:25;;;;;;;15.97;13.80;;;;;;;;;;5068863;28;20178;-91
2022/07/22 05:56:51;;;;;;;16.17;14.53;;;;;;;;;;5067474;28;20987;-89
2022/07/22 05:59:19;;;;;;;15.83;14.53;;;41.10;50.60;;;;;;5066236;28;21038;-90
2022/07/22 06:01:45;;;;;;;14.80;13.73;;;;;;;;;;5065065;28;20190;-88
2022/07/22 06:04:11;;;;;;;17.40;16.07;;;;;;;;;;5068096;28;20862;-89
2022/07/22 06:06:37;;;;;;;16.73;15.10;;;;;;;;;;5068554;28;20507;-89
2022/07/22 06:09:03;;;;;;;15.80;14.60;;;;;;;;;;5065337;28;20449;-89
2022/07/22 06:11:29;;;;;;;17.73;16.30;;;;;;;;;;5068410;28;20452;-89
2022/07/22 06:13:55;;;;;;;16.87;15.27;;;;;;;;;;5067595;28;20436;-88
2022/07/22 06:16:20;;;;;;;15.77;14.57;;;38.00;52.30;;;;;;5065473;28;20439;-88
2022/07/22 06:18:46;;;;;;;15.70;14.30;;;;;;;;;;5065283;28;20471;-88
2022/07/22 06:21:12;;;;;;;16.10;14.80;;;;;;;;;;5072625;28;20515;-89
2022/07/22 06:23:38;;;;;;;17.13;15.73;;;;;;;;;;5069047;28;20468;-89
2022/07/22 06:26:04;;;;;;;16.10;14.87;;;;;;;;;;5061469;28;21064;-89
2022/07/22 06:28:30;;;;;;;17.13;15.73;;;;;;;;;;5065184;28;20469;-88
2022/07/22 06:30:56;;;;;;;16.83;15.50;;;;;;;;;;5080333;28;21489;-88
2022/07/22 06:33:22;;;;;;;16.17;14.70;;;;;;;;;;5070366;28;20449;-88
2022/07/22 06:35:48;;;;;;;17.37;15.67;;;;;;;;;;5073357;28;20456;-89
2022/07/22 06:38:14;;;;;;;16.00;14.53;;;;;;;;;;5073437;28;20446;-89
2022/07/22 06:40:40;;;;;;;15.60;14.50;;;;;;;;;;5070499;28;20492;-89
2022/07/22 06:43:06;;;;;;;16.93;15.43;;;;;;;;;;5069328;28;20486;-90
2022/07/22 06:45:32;;;;;;;16.60;15.20;;;;;;;;;;5075267;28;20446;-89
2022/07/22 06:47:58;;;;;;;17.87;16.43;;;;;;;;;;5076189;28;20496;-89
2022/07/22 06:50:24;;;;;;;17.20;15.60;;;;;;;;;;5070818;28;22021;-88
2022/07/22 06:52:50;;;;;;;16.80;15.20;;;;;;;;;;5072204;28;21119;-88
2022/07/22 06:55:16;;;;;;;16.53;14.90;;;;;;;;;;5073103;28;20937;-89
2022/07/22 06:57:42;;;;;;;17.90;16.60;;;;;;;;;;5070199;28;20513;-90
2022/07/22 07:00:09;;;;;;;17.90;16.40;;;;;;;;;;5080235;28;20536;-89
2022/07/22 07:02:35;;;;;;;18.20;16.53;;;;;;;;;;5075252;28;20519;-88
2022/07/22 07:05:01;;;;;;;19.77;18.07;;;;;;;;;;5069137;28;20438;-90
2022/07/22 07:07:27;;;;;;;19.47;18.00;;;;;;;;;;5072917;28;20453;-89
2022/07/22 07:09:53;;;;;;;20.53;18.50;;;;;;;;;;5071399;28;20973;-90
2022/07/22 07:12:19;;;;;;;20.97;19.37;;;;;;;;;;5075700;28;20237;-90
2022/07/22 07:14:50;;;;;;;20.17;18.80;;;42.10;44.80;;;;;;5070468;28;20434;-90
2022/07/22 07:17:16;;;;;;;20.20;18.73;;;;;;;;;;5026980;22;20244;-89
2022/07/22 07:19:42;;;;;;;17.57;16.37;;;;;;;;;;5000318;28;20448;-90
2022/07/22 07:22:08;;;;;;;17.47;16.07;;;;;;;;;;5008750;28;20956;-89
2022/07/22 07:24:34;;;;;;;19.37;17.77;;;42.40;43.30;;;;;;5009651;28;20443;-89
2022/07/22 07:26:59;;;;;;;18.70;17.20;;;41.70;43.70;;;;;;5003492;28;20201;-90
2022/07/22 07:29:26;;;;;;;19.97;18.10;;;41.60;44.20;;;;;;5002110;28;20194;-89
2022/07/22 07:31:52;;;;;;;18.90;17.50;;;;;;;;;;4995068;28;20260;-88
2022/07/22 07:34:18;;;;;;;20.07;18.37;;;;;;;;;;4997304;28;20504;-88
2022/07/22 07:36:43;;;;;;;16.63;15.53;;;39.30;44.10;;;;;;4992737;28;20524;-89
2022/07/22 07:39:12;;;;;;;17.30;15.70;;;;;;;;;;4999781;28;20451;-89
2022/07/22 07:41:38;;;;;;;18.03;16.63;;;38.70;46.60;;;;;;4991474;28;20210;-88
2022/07/22 07:44:04;;;;;;;17.40;15.93;;;;;;;;;;5005162;28;20537;-88
2022/07/22 07:46:30;;;;;;;17.33;15.83;;;;;;;;;;4990782;28;20196;-89
2022/07/22 07:48:56;;;;;;;17.47;15.90;;;;;;;;;;4989431;28;20443;-89
2022/07/22 07:51:21;;;;;;;17.30;16.00;;;41.60;48.80;;;;;;5007350;28;20437;-88
2022/07/22 07:53:47;;;;;;;21.67;17.40;;;;;;;;;;4991719;28;20178;-89
2022/07/22 07:56:13;;;;;;;17.33;15.60;;;;;;;;;;5003814;28;20215;-89
2022/07/22 07:58:39;;;;;;;17.50;16.10;;;;;;;;;;5001237;28;21146;-88
2022/07/22 08:01:05;;;;;;;17.10;15.73;;;;;;;;;;5004367;28;20437;-89
2022/07/22 08:03:31;;;;;;;16.90;15.70;;;;;;;;;;5005781;28;20464;-89
2022/07/22 08:05:59;;;;;;;19.13;17.57;;;;;;;;;;5000531;28;20471;-89
2022/07/22 08:08:25;;;;;;;17.70;16.40;;;;;;;;;;5013423;28;20435;-90
2022/07/22 08:10:51;;;;;;;18.93;17.40;;;;;;;;;;5002007;28;20433;-89
2022/07/22 08:13:17;;;;;;;18.27;16.87;;;;;;;;;;5002684;28;20436;-89
2022/07/22 08:15:43;;;;;;;16.93;15.53;;;;;;;;;;5017539;28;20503;-89
2022/07/22 08:18:09;;;;;;;16.40;15.10;;;;;;;;;;5025150;28;20440;-89
2022/07/22 08:20:35;;;;;;;17.87;16.17;;;;;;;;;;5008619;28;21016;-89
2022/07/22 08:23:01;;;;;;;20.00;18.30;;;;;;;;;;4990441;28;20475;-89
2022/07/22 08:25:27;;;;;;;18.67;16.97;;;;;;;;;;4994673;28;20804;-88
2022/07/22 08:27:53;;;;;;;19.20;17.70;;;;;;;;;;4987278;28;20520;-89
2022/07/22 08:30:19;;;;;;;18.47;17.30;;;;;;;;;;4992002;28;20894;-90
2022/07/22 08:32:46;;;;;;;18.67;17.17;;;;;;;;;;4997718;28;20498;-89
2022/07/22 08:35:12;;;;;;;18.40;17.10;;;;;;;;;;4991587;28;20437;-89
2022/07/22 08:37:38;;;;;;;17.87;16.70;;;;;;;;;;4992541;28;21133;-88
2022/07/22 08:40:07;;;;;;;17.40;16.10;;;40.70;43.60;;;;;;5022435;28;20421;-89
2022/07/22 08:42:38;;;;;;;16.57;15.33;;;40.30;45.10;;;;;;5023913;28;20571;-89
2022/07/22 08:45:04;;;;;;;18.50;16.90;;;;;;;;;;5007123;28;20447;-91
2022/07/22 08:47:30;;;;;;;19.07;17.57;;;;;;;;;;5021600;28;20440;-89
2022/07/22 08:49:56;;;;;;;18.57;17.27;;;;;;;;;;5021790;28;20500;-89
2022/07/22 08:52:22;;;;;;;18.47;17.07;;;;;;;;;;5010582;28;21379;-89
2022/07/22 08:54:50;;;;;;;17.13;16.03;;;42.10;41.10;;;;;;5019678;28;20440;-89
2022/07/22 08:57:16;;;;;;;18.43;16.80;;;;;;;;;;5032526;28;20634;-91
2022/07/22 08:59:56;;;;;;;18.53;17.00;;;40.50;42.50;;;;;;5033976;28;20436;-89
2022/07/22 09:02:22;;;;;;;18.57;17.17;;;;;;;;;;5010264;28;20578;-89
2022/07/22 09:05:01;;;;;;;17.87;16.50;;;39.40;44.70;;;;;;5016666;28;20433;-89
2022/07/22 09:07:29;;;;;;;16.77;15.40;;;38.90;45.60;;;;;;4996264;28;20436;-89
2022/07/22 09:09:57;;;;;;;17.80;16.50;;;39.30;44.20;;;;;;4987805;28;20504;-90
2022/07/22 09:12:22;;;;;;;19.03;17.43;;;;;;;;;;4994951;28;20439;-88
2022/07/22 09:14:53;;;;;;;17.53;16.23;;;41.30;42.70;;;;;;5011709;28;20577;-87
2022/07/22 09:17:28;;;;;;;18.20;17.00;;;41.10;41.60;;;;;;4996910;28;20480;-90
2022/07/22 09:19:55;;;;;;;18.60;17.30;;;41.30;41.70;;;;;;5008438;28;20439;-88
2022/07/22 09:22:37;;;;;;;19.63;18.13;;;41.30;41.40;;;;;;5013247;28;20536;-89
2022/07/22 09:25:33;;;;;;;20.77;19.43;;;39.80;43.10;;;;;;5004105;28;20487;-89
2022/07/22 09:28:05;;;;;;;17.30;16.20;;;39.80;44.00;;;;;;4996552;28;20437;-89
2022/07/22 09:30:31;;;;;;;20.17;18.07;;;;;;;;;;5009067;28;20991;-89
2022/07/22 09:32:57;;;;;;;18.90;17.47;;;;;;;;;;5006449;28;20448;-88
2022/07/22 09:35:24;;;;;;;18.17;16.93;;;;;;;;;;5016337;28;20459;-89
2022/07/22 09:37:52;;;;;;;18.33;17.03;;;40.60;43.10;;;;;;4997576;28;21444;-89
2022/07/22 09:40:21;;;;;;;16.77;15.60;;;40.90;42.90;;;;;;5001507;28;20507;-90
2022/07/22 09:42:49;;;;;;;19.87;18.30;;;42.20;40.90;;;;;;5017803;28;20461;-89
2022/07/22 09:45:15;;;;;;;20.93;19.43;;;;;;;;;;5015703;28;20433;-89
2022/07/22 09:47:43;;;;;;;21.30;19.83;;;42.50;39.30;;;;;;5018720;28;20498;-88
2022/07/22 09:50:27;;;;;;;22.53;20.73;;;41.80;45.30;;;;;;5007523;28;20508;-89
2022/07/22 09:52:55;;;;;;;22.37;21.00;;;41.20;40.80;;;;;;5017493;28;20540;-89
2022/07/22 09:55:22;;;;;;;22.73;21.33;;;41.00;40.30;;;;;;5034823;28;20445;-90
2022/07/22 09:57:49;;;;;;;22.03;20.63;;;41.30;41.00;;;;;;5016558;28;20435;-88
2022/07/22 10:00:24;;;;;;;24.00;22.40;;;41.30;40.10;;;;;;4998550;28;20443;-88
2022/07/22 10:02:59;;;;;;;22.80;21.23;;;41.00;40.90;;;;;;5016674;28;22033;-89
2022/07/22 10:05:27;;;;;;;20.43;18.87;;;41.50;41.30;;;;;;5022674;28;20451;-88
2022/07/22 10:07:53;;;;;;;25.33;19.90;;;;;;;;;;5010656;28;20443;-87
2022/07/22 10:10:24;;;;;;;21.23;19.83;;;39.50;41.80;;;;;;5007837;28;20830;-89
2022/07/22 10:12:55;;;;;;;21.60;20.00;;;38.70;42.80;;;;;;5008767;28;20505;-90
2022/07/22 10:15:22;;;;;;;20.50;19.03;;;39.00;43.20;;;;;;5034367;28;21120;-89
2022/07/22 10:17:51;;;;;;;19.53;18.30;;;38.70;42.60;;;;;;5017400;28;20440;-90
2022/07/22 10:20:19;;;;;;;20.40;19.20;;;38.50;43.80;;;;;;5014497;28;20471;-89
2022/07/22 10:22:50;;;;;;;17.20;15.77;;;39.50;44.20;;;;;;5019920;28;20452;-90
2022/07/22 10:25:18;;;;;;;19.67;18.17;;;39.80;41.60;;;;;;5014289;28;20507;-87
2022/07/22 10:27:58;;;;;;;20.57;19.20;;;39.10;42.50;;;;;;5001948;28;20437;-90
2022/07/22 10:30:26;;;;;;;18.90;17.47;;;38.00;44.60;;;;;;5005378;28;20480;-90
2022/07/22 10:33:11;;;;;;;17.27;15.77;;;38.00;45.10;;;;;;5016114;28;20440;-89
2022/07/22 10:35:50;;;;;;;16.57;15.40;;;38.00;44.20;;;;;;5004618;28;21135;-89
2022/07/22 10:38:19;;;;;;;16.23;14.70;;;38.00;44.80;;;;;;5027063;28;20958;-89
2022/07/22 10:41:04;;;;;;;15.47;14.30;;;38.00;44.90;;;;;;5022415;28;20437;-88
2022/07/22 10:43:44;;;;;;;13.73;12.73;;;36.00;47.10;;;;;;5016381;28;20456;-89
2022/07/22 10:46:10;;;;;;;13.67;12.47;;;35.80;49.50;;;;;;5016401;28;20988;-89
2022/07/22 10:48:46;;;;;;;13.83;12.43;;;33.00;51.50;;;;;;5017090;28;20467;-89
2022/07/22 10:51:21;;;;;;;12.40;11.30;;;32.20;53.80;;;;;;5004459;28;20194;-89
2022/07/22 10:53:55;;;;;;;11.17;10.27;;;31.80;55.70;;;;;;5020912;28;20437;-89
2022/07/22 10:56:20;;;;;;;11.20;10.13;;;31.40;56.60;;;;;;5006170;28;20457;-89
2022/07/22 10:58:55;;;;;;;11.43;10.13;;;31.20;58.40;;;;;;4998982;28;20528;-89
2022/07/22 11:01:30;;;;;;;10.57;9.77;;;31.30;57.50;;;;;;5003763;28;20290;-89
2022/07/22 11:04:07;;;;;;;12.40;10.20;;;31.60;58.10;;;;;;5014124;28;20525;-89
2022/07/22 11:06:33;;;;;;;12.43;9.77;;;30.60;58.30;;;;;;5000187;28;20456;-88
2022/07/22 11:09:05;;;;;;;13.50;10.27;;;30.40;58.30;;;;;;5009505;28;20451;-89
2022/07/22 11:11:42;;;;;;;11.30;10.20;;;30.10;60.00;;;;;;5013431;28;20184;-90
2022/07/22 11:14:13;;;;;;;10.80;9.67;;;30.10;60.80;;;;;;5005733;28;20541;-89
2022/07/22 11:16:39;;;;;;;10.57;9.57;;;30.70;61.20;;;;;;5000484;28;20560;-89
2022/07/22 11:19:05;;;;;;;13.00;8.97;;;;;;;;;;4999972;28;20515;-89
2022/07/22 11:21:32;;;;;;;10.10;8.97;;;30.30;62.30;;;;;;5007042;28;20225;-88
2022/07/22 11:24:03;;;;;;;10.00;9.00;;;30.40;59.80;;;;;;5004622;28;20469;-88
2022/07/22 11:26:35;;;;;;;11.17;10.10;;;30.30;60.60;;;;;;5005883;28;20462;-90
2022/07/22 11:29:01;;;;;;;9.30;8.37;;;;;;;;;;5028360;28;20425;-91
2022/07/22 11:31:27;;;;;;;10.47;9.47;;;30.40;62.50;;;;;;5018237;28;20453;-89
2022/07/22 11:34:14;;;;;;;10.40;9.50;;;30.60;61.70;;;;;;5025081;28;20432;-90
2022/07/22 11:36:42;;;;;;;10.37;8.93;;;30.80;61.70;;;;;;5011138;28;20209;-89
2022/07/22 11:39:09;;;;;;;10.20;9.20;;;30.80;61.20;;;;;;5017873;28;20479;-89
2022/07/22 11:41:35;;;;;;;12.70;9.73;;;;;;;;;;5002014;28;20475;-89
2022/07/22 11:44:02;;;;;;;9.77;8.43;;;;;;;;;;5006116;28;20528;-89
2022/07/22 11:46:28;;;;;;;11.43;8.50;;;;;;;;;;5026247;28;20468;-89
2022/07/22 11:48:58;;;;;;;9.30;8.37;;;30.90;60.30;;;;;;5037918;28;22793;-91
2022/07/22 11:51:31;;;;;;;10.90;8.60;;;31.00;59.90;;;;;;5026815;28;20428;-90
2022/07/22 11:53:58;;;;;;;10.80;9.70;;;31.00;60.40;;;;;;5017211;28;20459;-91
2022/07/22 11:56:24;;;;;;;10.30;9.30;;;;;;;;;;5003286;28;21109;-90
2022/07/22 11:58:53;;;;;;;9.67;8.83;;;;;;;;;;5009585;28;20865;-88
2022/07/22 12:01:19;;;;;;;9.60;8.67;;;;;;;;;;5038212;28;20834;-90
2022/07/22 12:03:48;;;;;;;11.07;8.80;;;31.00;58.90;;;;;;5023986;28;20497;-90
2022/07/22 12:06:15;;;;;;;10.40;8.53;;;31.10;59.50;;;;;;5011383;28;20501;-89
2022/07/22 12:08:43;;;;;;;10.10;9.30;;;31.00;58.50;;;;;;5021221;28;20541;-90
2022/07/22 12:11:11;;;;;;;10.97;9.20;;;31.10;59.70;;;;;;5023528;28;20442;-90
2022/07/22 12:13:42;;;;;;;9.63;8.83;;;31.10;59.70;;;;;;5018841;28;20429;-89
2022/07/22 12:16:26;;;;;;;9.63;8.70;;;31.10;60.60;;;;;;5009360;28;20546;-90
2022/07/22 12:18:57;;;;;;;11.57;8.60;;;31.00;58.80;;;;;;5008842;28;20437;-89
2022/07/22 12:21:26;;;;;;;11.93;8.50;;;31.00;59.20;;;;;;5004955;28;20437;-89
2022/07/22 12:23:55;;;;;;;10.97;9.17;;;30.90;60.90;;;;;;5004701;28;20461;-90
2022/07/22 12:26:46;;;;;;;9.30;8.50;;;31.10;59.30;;;;;;5020265;28;20448;-90
2022/07/22 12:29:17;;;;;;;11.03;9.70;;;31.10;60.00;;;;;;4998063;28;20447;-90
2022/07/22 12:31:50;;;;;;;9.97;8.53;;;31.30;59.70;;;;;;5010245;28;20479;-90
2022/07/22 12:34:17;;;;;;;9.93;8.20;;;31.60;58.80;;;;;;5019638;28;20827;-90
2022/07/22 12:36:46;;;;;;;9.27;8.50;;;31.70;57.70;;;;;;5006450;28;20466;-90
2022/07/22 12:39:14;;;;;;;10.93;9.90;;;31.40;57.80;;;;;;5019316;28;20442;-90
2022/07/22 12:41:49;;;;;;;13.10;9.33;;;31.50;59.20;;;;;;5000380;28;20528;-90
2022/07/22 12:44:16;;;;;;;10.20;9.20;;;31.60;58.60;;;;;;5019016;28;20496;-91
2022/07/22 12:46:50;;;;;;;10.50;9.60;;;31.50;58.00;;;;;;5004991;28;20821;-90
2022/07/22 12:49:19;;;;;;;11.87;9.60;;;31.50;58.50;;;;;;5006680;28;20481;-89
2022/07/22 12:52:13;;;;;;;9.43;8.63;;;31.60;58.40;;;;;;5003984;28;20461;-90
2022/07/22 12:54:40;;;;;;;10.67;9.57;;;31.60;58.50;;;;;;5006428;28;20666;-91
2022/07/22 12:57:07;;;;;;;10.00;9.10;;;31.40;57.90;;;;;;5017195;28;20465;-90
2022/07/22 12:59:34;;;;;;;10.20;9.20;;;;;;;;;;5007437;28;20431;-91
2022/07/22 13:02:07;;;;;;;10.00;8.90;;;31.40;57.70;;;;;;5013948;28;20472;-90
2022/07/22 13:04:33;;;;;;;10.53;9.50;;;;;;;;;;5011486;28;20534;-89
2022/07/22 13:06:58;;;;;;;12.57;9.83;;;;;;;;;;5012161;28;20548;-91
2022/07/22 13:09:24;;;;;;;11.80;9.77;;;;;;;;;;5000306;28;20469;-90